createdAt,value
2018-09-20T00:00:15.579Z,4.07
2018-09-20T00:05:25.643Z,3.80
2018-09-20T00:10:35.599Z,4.63
2018-09-20T00:15:45.953Z,5.40
2018-09-20T00:20:55.907Z,5.33
2018-09-20T00:26:06.442Z,5.30
2018-09-20T00:31:16.657Z,5.33
2018-09-20T00:36:26.635Z,4.73
2018-09-20T00:41:36.754Z,5.20
2018-09-20T00:46:46.683Z,4.40
2018-09-20T00:51:56.797Z,4.50
2018-09-20T00:57:06.773Z,4.83
2018-09-20T01:02:16.928Z,4.17
2018-09-20T01:07:26.965Z,5.37
2018-09-20T01:12:37.104Z,4.80
2018-09-20T01:17:47.261Z,4.70
2018-09-20T01:22:57.295Z,4.40
2018-09-20T01:28:07.283Z,4.80
2018-09-20T01:33:17.554Z,5.17
2018-09-20T01:38:27.642Z,4.87
2018-09-20T01:43:37.747Z,5.33
2018-09-20T01:48:47.828Z,5.17
2018-09-20T01:53:57.805Z,5.53
2018-09-20T01:59:07.849Z,6.37
2018-09-20T02:04:17.945Z,4.80
2018-09-20T02:09:28.025Z,5.87
2018-09-20T02:14:37.986Z,5.73
2018-09-20T02:19:48.128Z,5.20
2018-09-20T02:24:58.212Z,6.47
2018-09-20T02:30:08.374Z,6.47
2018-09-20T02:35:18.530Z,6.10
2018-09-20T02:40:30.239Z,5.50
2018-09-20T02:45:51.448Z,5.90
2018-09-20T02:51:09.626Z,5.50
2018-09-20T02:56:28.765Z,5.50
2018-09-20T03:01:42.694Z,5.40
2018-09-20T03:06:58.106Z,6.43
2018-09-20T03:12:15.718Z,6.77
2018-09-20T03:17:37.010Z,5.90
2018-09-20T03:22:56.416Z,6.30
2018-09-20T03:28:16.757Z,6.23
2018-09-20T03:33:35.965Z,5.43
2018-09-20T03:38:49.525Z,6.43
2018-09-20T03:44:01.749Z,6.97
2018-09-20T03:49:11.871Z,4.47
2018-09-20T03:54:21.822Z,5.93
2018-09-20T03:59:31.753Z,6.00
2018-09-20T04:04:41.686Z,7.23
2018-09-20T04:09:52.111Z,6.30
2018-09-20T04:15:02.214Z,6.03
2018-09-20T04:20:12.254Z,7.10
2018-09-20T04:25:22.324Z,6.93
2018-09-20T04:30:32.469Z,7.37
2018-09-20T04:35:42.483Z,6.10
2018-09-20T04:40:55.082Z,7.00
2018-09-20T04:46:05.121Z,6.43
2018-09-20T04:51:16.329Z,6.70
2018-09-20T04:56:26.265Z,6.67
2018-09-20T05:01:36.202Z,7.40
2018-09-20T05:06:46.187Z,7.33
2018-09-20T05:11:56.245Z,6.67
2018-09-20T05:17:06.348Z,7.40
2018-09-20T05:22:16.543Z,7.67
2018-09-20T05:27:26.549Z,8.00
2018-09-20T05:32:39.719Z,6.43
2018-09-20T05:37:49.811Z,7.87
2018-09-20T05:43:00.902Z,5.67
2018-09-20T05:48:11.470Z,6.60
2018-09-20T05:53:21.529Z,7.30
2018-09-20T05:58:31.913Z,7.40
2018-09-20T06:03:42.638Z,6.90
2018-09-20T06:08:52.636Z,6.87
2018-09-20T06:14:04.410Z,7.07
2018-09-20T06:19:14.417Z,7.47
2018-09-20T06:24:24.566Z,7.13
2018-09-20T06:29:34.705Z,8.27
2018-09-20T06:34:44.785Z,6.60
2018-09-20T06:40:30.868Z,7.50
2018-09-20T06:45:40.888Z,7.53
2018-09-20T06:50:50.950Z,5.33
2018-09-20T06:56:00.862Z,7.03
2018-09-20T07:01:10.900Z,7.00
2018-09-20T07:06:21.337Z,6.87
2018-09-20T07:11:31.487Z,7.00
2018-09-20T07:16:41.520Z,6.23
2018-09-20T07:21:51.660Z,5.67
2018-09-20T07:27:01.545Z,5.87
2018-09-20T07:32:11.504Z,6.93
2018-09-20T07:37:21.551Z,6.17
2018-09-20T07:42:31.479Z,5.10
2018-09-20T07:47:41.501Z,5.37
2018-09-20T07:52:51.500Z,5.07
2018-09-20T07:58:01.541Z,4.90
2018-09-20T08:03:11.403Z,5.23
2018-09-20T08:08:21.407Z,4.77
2018-09-20T08:13:31.416Z,4.53
2018-09-20T08:18:41.283Z,5.17
2018-09-20T08:23:51.296Z,4.70
2018-09-20T08:29:01.338Z,5.00
2018-09-20T08:34:11.303Z,5.00
2018-09-20T08:39:21.214Z,4.80
2018-09-20T08:44:31.256Z,4.57
2018-09-20T08:49:41.324Z,4.10
2018-09-20T08:54:51.347Z,3.90
2018-09-20T09:00:01.536Z,4.20
2018-09-20T09:05:11.618Z,3.73
2018-09-20T09:10:21.657Z,3.40
2018-09-20T09:15:31.572Z,3.87
2018-09-20T09:20:41.620Z,3.20
2018-09-20T09:25:51.664Z,3.40
2018-09-20T09:31:01.824Z,3.37
2018-09-20T09:36:11.744Z,2.97
2018-09-20T09:41:21.874Z,3.23
2018-09-20T09:46:31.775Z,2.80
2018-09-20T09:51:41.760Z,3.13
2018-09-20T09:56:51.807Z,3.27
2018-09-20T10:02:01.823Z,2.80
2018-09-20T10:07:11.917Z,2.93
2018-09-20T10:12:21.912Z,3.37
2018-09-20T10:17:32.204Z,3.90
2018-09-20T10:22:42.248Z,3.10
2018-09-20T10:27:52.212Z,2.67
2018-09-20T10:33:02.226Z,3.13
2018-09-20T10:38:12.126Z,2.87
2018-09-20T10:43:22.185Z,2.37
2018-09-20T10:48:33.140Z,2.40
2018-09-20T10:53:43.602Z,2.97
2018-09-20T10:58:53.866Z,2.80
2018-09-20T11:04:03.787Z,3.00
2018-09-20T11:09:13.804Z,2.57
2018-09-20T11:14:23.891Z,3.00
2018-09-20T11:19:33.919Z,2.50
2018-09-20T11:24:43.820Z,2.50
2018-09-20T11:29:53.864Z,2.67
2018-09-20T11:35:03.988Z,3.20
2018-09-20T11:40:13.949Z,2.47
2018-09-20T11:45:24.012Z,2.50
2018-09-20T11:50:35.005Z,2.60
2018-09-20T11:55:46.857Z,3.00
2018-09-20T12:00:56.920Z,2.97
2018-09-20T12:06:06.974Z,2.63
2018-09-20T12:11:16.815Z,3.10
2018-09-20T12:16:26.860Z,3.03
2018-09-20T12:21:36.913Z,2.77
2018-09-20T12:26:46.971Z,3.00
2018-09-20T12:31:56.932Z,3.20
2018-09-20T12:37:06.788Z,2.70
2018-09-20T12:42:16.695Z,2.93
2018-09-20T12:47:26.705Z,3.37
2018-09-20T12:52:36.744Z,2.53
2018-09-20T12:57:46.831Z,2.60
2018-09-20T13:02:56.839Z,3.00
2018-09-20T13:08:06.845Z,3.23
2018-09-20T13:13:16.927Z,2.90
2018-09-20T13:18:26.903Z,2.47
2018-09-20T13:23:37.053Z,2.73
2018-09-20T13:28:46.917Z,2.37
2018-09-20T13:33:57.072Z,3.07
2018-09-20T13:39:09.212Z,2.67
2018-09-20T13:44:19.220Z,2.20
2018-09-20T13:49:29.227Z,2.50
2018-09-20T13:54:39.232Z,2.43
2018-09-20T13:59:49.267Z,2.50
2018-09-20T14:04:59.278Z,2.50
2018-09-20T14:10:09.232Z,2.10
2018-09-20T14:15:19.267Z,2.60
2018-09-20T14:20:30.545Z,3.00
2018-09-20T14:25:40.472Z,3.00
2018-09-20T14:30:50.940Z,4.47
2018-09-20T14:36:00.930Z,3.60
2018-09-20T14:41:10.955Z,3.07
2018-09-20T14:46:51.847Z,3.13
2018-09-20T14:52:01.785Z,3.00
2018-09-20T14:57:11.851Z,2.30
2018-09-20T15:02:21.936Z,3.43
2018-09-20T15:07:31.772Z,2.60
2018-09-20T15:12:41.864Z,2.50
2018-09-20T15:17:51.906Z,2.43
2018-09-20T15:23:01.928Z,2.80
2018-09-20T15:28:12.187Z,2.37
2018-09-20T15:33:22.116Z,2.40
2018-09-20T15:38:32.166Z,2.70
2018-09-20T15:43:42.188Z,2.80
2018-09-20T15:48:52.230Z,2.53
2018-09-20T15:54:02.381Z,2.77
2018-09-20T15:59:12.296Z,2.87
2018-09-20T16:04:22.420Z,2.53
2018-09-20T16:09:32.456Z,2.87
2018-09-20T16:14:42.478Z,3.10
2018-09-20T16:19:52.516Z,2.60
2018-09-20T16:25:02.566Z,2.50
2018-09-20T16:30:24.285Z,2.77
2018-09-20T16:35:43.776Z,2.70
2018-09-20T16:40:54.581Z,2.57
2018-09-20T16:46:04.584Z,2.47
2018-09-20T16:51:14.536Z,2.60
2018-09-20T16:56:24.379Z,2.73
2018-09-20T17:01:34.403Z,3.07
2018-09-20T17:06:44.262Z,3.03
2018-09-20T17:11:54.129Z,3.23
2018-09-20T17:17:04.499Z,3.57
2018-09-20T17:22:14.521Z,3.10
2018-09-20T17:27:25.015Z,3.20
2018-09-20T17:32:34.913Z,3.53
2018-09-20T17:37:45.666Z,2.70
2018-09-20T17:43:00.375Z,3.20
2018-09-20T17:48:10.969Z,3.03
2018-09-20T17:53:21.650Z,3.50
2018-09-20T17:58:31.947Z,3.10
2018-09-20T18:03:41.885Z,3.17
2018-09-20T18:08:51.853Z,2.93
2018-09-20T18:14:01.772Z,3.07
2018-09-20T18:19:11.839Z,3.57
2018-09-20T18:24:31.754Z,3.63
2018-09-20T18:29:41.857Z,3.67
2018-09-20T18:34:51.904Z,3.90
2018-09-20T18:40:02.289Z,2.87
2018-09-20T18:45:12.232Z,2.87
2018-09-20T18:50:23.040Z,3.47
2018-09-20T18:55:33.116Z,3.63
2018-09-20T19:00:43.181Z,3.83
2018-09-20T19:05:53.264Z,3.53
2018-09-20T19:11:03.231Z,2.77
2018-09-20T19:16:13.088Z,2.93
2018-09-20T19:21:23.729Z,2.77
2018-09-20T19:26:34.756Z,3.10
2018-09-20T19:31:46.296Z,3.70
2018-09-20T19:36:58.513Z,2.77
2018-09-20T19:42:08.881Z,3.53
2018-09-20T19:47:19.229Z,3.93
2018-09-20T19:52:29.187Z,3.37
2018-09-20T19:57:39.221Z,3.80
2018-09-20T20:02:49.204Z,2.93
2018-09-20T20:07:59.949Z,3.33
2018-09-20T20:13:09.881Z,3.40
2018-09-20T20:18:19.960Z,3.57
2018-09-20T20:23:29.882Z,3.07
2018-09-20T20:28:39.972Z,3.77
2018-09-20T20:33:50.205Z,3.40
2018-09-20T20:39:00.064Z,3.23
2018-09-20T20:44:10.432Z,3.77
2018-09-20T20:49:20.660Z,3.50
2018-09-20T20:54:30.557Z,3.00
2018-09-20T20:59:40.524Z,3.07
2018-09-20T21:04:51.412Z,3.37
2018-09-20T21:10:04.309Z,3.20
2018-09-20T21:15:14.224Z,2.97
2018-09-20T21:20:24.121Z,3.10
2018-09-20T21:25:34.553Z,3.57
2018-09-20T21:30:45.252Z,3.20
2018-09-20T21:35:55.857Z,2.80
2018-09-20T21:41:06.195Z,3.20
2018-09-20T21:46:16.103Z,3.40
2018-09-20T21:51:26.752Z,3.40
2018-09-20T21:56:36.711Z,3.23
2018-09-20T22:01:52.668Z,3.00
2018-09-20T22:07:02.696Z,3.63
2018-09-20T22:12:12.743Z,3.73
2018-09-20T22:17:22.728Z,3.50
2018-09-20T22:22:33.304Z,3.27
2018-09-20T22:27:43.290Z,3.40
2018-09-20T22:32:53.530Z,3.00
2018-09-20T22:38:03.564Z,3.60
2018-09-20T22:43:13.878Z,3.57
2018-09-20T22:48:23.984Z,3.37
2018-09-20T22:53:34.017Z,3.40
2018-09-20T22:58:44.021Z,3.50
2018-09-20T23:03:54.084Z,3.87
2018-09-20T23:09:06.441Z,3.87
2018-09-20T23:14:16.391Z,2.93
2018-09-20T23:19:26.429Z,2.90
2018-09-20T23:24:36.439Z,3.43
2018-09-20T23:29:46.472Z,3.23
2018-09-20T23:34:56.429Z,3.40
2018-09-20T23:40:07.394Z,3.20
2018-09-20T23:45:17.291Z,3.53
2018-09-20T23:50:27.335Z,3.80
2018-09-20T23:55:37.347Z,3.40
